sensor_id;sensor_type;location;lat;lon;timestamp;P1;durP1;ratioP1;P2;durP2;ratioP2
20114;SDS011;10218;42.874;25.320;2023-06-26T00:01:32;7.90;;;4.00;;
20114;SDS011;10218;42.874;25.320;2023-06-26T00:04:00;5.83;;;3.90;;
20114;SDS011;10218;42.874;25.320;2023-06-26T00:06:27;5.47;;;3.70;;
20114;SDS011;10218;42.874;25.320;2023-06-26T00:08:55;7.73;;;3.90;;
20114;SDS011;10218;42.874;25.320;2023-06-26T00:11:23;5.77;;;3.83;;
20114;SDS011;10218;42.874;25.320;2023-06-26T00:13:50;5.90;;;3.77;;
20114;SDS011;10218;42.874;25.320;2023-06-26T00:16:17;6.80;;;3.70;;
20114;SDS011;10218;42.874;25.320;2023-06-26T00:18:44;6.83;;;3.70;;
20114;SDS011;10218;42.874;25.320;2023-06-26T00:21:11;8.90;;;3.87;;
20114;SDS011;10218;42.874;25.320;2023-06-26T00:23:38;6.50;;;4.00;;
20114;SDS011;10218;42.874;25.320;2023-06-26T00:26:06;7.23;;;3.60;;
20114;SDS011;10218;42.874;25.320;2023-06-26T00:28:33;6.40;;;3.90;;
20114;SDS011;10218;42.874;25.320;2023-06-26T00:31:00;6.40;;;3.50;;
20114;SDS011;10218;42.874;25.320;2023-06-26T00:33:28;6.00;;;3.53;;
20114;SDS011;10218;42.874;25.320;2023-06-26T00:35:56;7.13;;;4.10;;
20114;SDS011;10218;42.874;25.320;2023-06-26T00:38:23;7.07;;;4.20;;
20114;SDS011;10218;42.874;25.320;2023-06-26T00:40:50;6.23;;;4.30;;
20114;SDS011;10218;42.874;25.320;2023-06-26T00:43:18;7.93;;;4.37;;
20114;SDS011;10218;42.874;25.320;2023-06-26T00:45:45;9.60;;;4.07;;
20114;SDS011;10218;42.874;25.320;2023-06-26T00:48:12;9.30;;;4.37;;
20114;SDS011;10218;42.874;25.320;2023-06-26T00:50:40;7.90;;;4.23;;
20114;SDS011;10218;42.874;25.320;2023-06-26T00:53:11;8.77;;;4.50;;
20114;SDS011;10218;42.874;25.320;2023-06-26T00:55:39;9.30;;;4.10;;
20114;SDS011;10218;42.874;25.320;2023-06-26T00:58:07;7.63;;;4.03;;
20114;SDS011;10218;42.874;25.320;2023-06-26T01:00:35;7.33;;;4.53;;
20114;SDS011;10218;42.874;25.320;2023-06-26T01:03:02;6.97;;;4.07;;
20114;SDS011;10218;42.874;25.320;2023-06-26T01:05:29;6.53;;;4.13;;
20114;SDS011;10218;42.874;25.320;2023-06-26T01:07:57;10.67;;;4.60;;
20114;SDS011;10218;42.874;25.320;2023-06-26T01:10:25;6.20;;;4.20;;
20114;SDS011;10218;42.874;25.320;2023-06-26T01:12:56;8.93;;;4.60;;
20114;SDS011;10218;42.874;25.320;2023-06-26T01:15:24;7.67;;;4.43;;
20114;SDS011;10218;42.874;25.320;2023-06-26T01:17:51;5.43;;;4.13;;
20114;SDS011;10218;42.874;25.320;2023-06-26T01:20:19;10.67;;;4.60;;
20114;SDS011;10218;42.874;25.320;2023-06-26T01:25:29;7.63;;;4.80;;
20114;SDS011;10218;42.874;25.320;2023-06-26T01:28:05;13.23;;;4.80;;
20114;SDS011;10218;42.874;25.320;2023-06-26T01:30:34;8.33;;;4.23;;
20114;SDS011;10218;42.874;25.320;2023-06-26T01:33:08;7.07;;;4.20;;
20114;SDS011;10218;42.874;25.320;2023-06-26T01:35:35;8.27;;;4.60;;
20114;SDS011;10218;42.874;25.320;2023-06-26T01:38:20;9.77;;;4.20;;
20114;SDS011;10218;42.874;25.320;2023-06-26T01:40:50;12.27;;;4.40;;
20114;SDS011;10218;42.874;25.320;2023-06-26T01:46:20;8.00;;;5.20;;
20114;SDS011;10218;42.874;25.320;2023-06-26T01:48:53;5.90;;;4.33;;
20114;SDS011;10218;42.874;25.320;2023-06-26T01:51:32;5.17;;;4.07;;
20114;SDS011;10218;42.874;25.320;2023-06-26T01:54:05;10.63;;;4.60;;
20114;SDS011;10218;42.874;25.320;2023-06-26T01:56:37;8.73;;;4.33;;
20114;SDS011;10218;42.874;25.320;2023-06-26T01:59:05;10.47;;;4.30;;
20114;SDS011;10218;42.874;25.320;2023-06-26T02:01:34;9.43;;;4.60;;
20114;SDS011;10218;42.874;25.320;2023-06-26T02:04:01;13.00;;;5.07;;
20114;SDS011;10218;42.874;25.320;2023-06-26T02:06:30;8.97;;;4.57;;
20114;SDS011;10218;42.874;25.320;2023-06-26T02:08:58;7.40;;;4.80;;
20114;SDS011;10218;42.874;25.320;2023-06-26T02:11:25;7.70;;;4.77;;
20114;SDS011;10218;42.874;25.320;2023-06-26T02:13:52;13.90;;;5.00;;
20114;SDS011;10218;42.874;25.320;2023-06-26T02:16:19;7.67;;;4.43;;
20114;SDS011;10218;42.874;25.320;2023-06-26T02:18:46;10.40;;;4.43;;
20114;SDS011;10218;42.874;25.320;2023-06-26T02:21:14;10.13;;;4.20;;
20114;SDS011;10218;42.874;25.320;2023-06-26T02:23:41;7.30;;;4.17;;
20114;SDS011;10218;42.874;25.320;2023-06-26T02:26:08;9.87;;;4.70;;
20114;SDS011;10218;42.874;25.320;2023-06-26T02:28:35;8.17;;;4.87;;
20114;SDS011;10218;42.874;25.320;2023-06-26T02:31:02;11.97;;;4.67;;
20114;SDS011;10218;42.874;25.320;2023-06-26T02:33:30;6.30;;;4.40;;
20114;SDS011;10218;42.874;25.320;2023-06-26T02:35:58;7.20;;;4.30;;
20114;SDS011;10218;42.874;25.320;2023-06-26T02:38:25;7.57;;;4.60;;
20114;SDS011;10218;42.874;25.320;2023-06-26T02:40:52;11.47;;;4.77;;
20114;SDS011;10218;42.874;25.320;2023-06-26T02:43:20;8.37;;;4.67;;
20114;SDS011;10218;42.874;25.320;2023-06-26T02:45:47;7.63;;;4.57;;
20114;SDS011;10218;42.874;25.320;2023-06-26T02:48:14;6.73;;;4.40;;
20114;SDS011;10218;42.874;25.320;2023-06-26T02:50:41;9.97;;;4.60;;
20114;SDS011;10218;42.874;25.320;2023-06-26T02:53:12;8.87;;;4.47;;
20114;SDS011;10218;42.874;25.320;2023-06-26T02:55:40;6.20;;;4.47;;
20114;SDS011;10218;42.874;25.320;2023-06-26T02:58:07;10.70;;;5.17;;
20114;SDS011;10218;42.874;25.320;2023-06-26T03:00:35;8.30;;;4.40;;
20114;SDS011;10218;42.874;25.320;2023-06-26T03:03:11;8.07;;;4.60;;
20114;SDS011;10218;42.874;25.320;2023-06-26T03:05:39;10.10;;;4.80;;
20114;SDS011;10218;42.874;25.320;2023-06-26T03:08:06;11.70;;;5.10;;
20114;SDS011;10218;42.874;25.320;2023-06-26T03:10:33;8.10;;;4.60;;
20114;SDS011;10218;42.874;25.320;2023-06-26T03:13:00;11.03;;;4.90;;
20114;SDS011;10218;42.874;25.320;2023-06-26T03:15:27;7.00;;;4.50;;
20114;SDS011;10218;42.874;25.320;2023-06-26T03:17:55;7.23;;;5.00;;
20114;SDS011;10218;42.874;25.320;2023-06-26T03:20:22;8.57;;;5.50;;
20114;SDS011;10218;42.874;25.320;2023-06-26T03:22:49;10.70;;;5.30;;
20114;SDS011;10218;42.874;25.320;2023-06-26T03:25:17;9.27;;;4.90;;
20114;SDS011;10218;42.874;25.320;2023-06-26T03:27:45;12.03;;;4.73;;
20114;SDS011;10218;42.874;25.320;2023-06-26T03:30:13;9.80;;;4.73;;
20114;SDS011;10218;42.874;25.320;2023-06-26T03:32:41;10.90;;;4.80;;
20114;SDS011;10218;42.874;25.320;2023-06-26T03:35:08;10.60;;;4.80;;
20114;SDS011;10218;42.874;25.320;2023-06-26T03:37:36;12.57;;;4.90;;
20114;SDS011;10218;42.874;25.320;2023-06-26T03:40:04;10.10;;;5.17;;
20114;SDS011;10218;42.874;25.320;2023-06-26T03:42:31;8.80;;;5.03;;
20114;SDS011;10218;42.874;25.320;2023-06-26T03:44:59;14.07;;;5.43;;
20114;SDS011;10218;42.874;25.320;2023-06-26T03:47:26;11.00;;;5.40;;
20114;SDS011;10218;42.874;25.320;2023-06-26T03:49:55;9.03;;;5.33;;
20114;SDS011;10218;42.874;25.320;2023-06-26T03:52:22;7.13;;;5.40;;
20114;SDS011;10218;42.874;25.320;2023-06-26T03:54:49;8.40;;;4.77;;
20114;SDS011;10218;42.874;25.320;2023-06-26T03:57:16;9.93;;;5.10;;
20114;SDS011;10218;42.874;25.320;2023-06-26T03:59:45;9.83;;;5.33;;
20114;SDS011;10218;42.874;25.320;2023-06-26T04:02:13;8.40;;;5.60;;
20114;SDS011;10218;42.874;25.320;2023-06-26T04:04:41;10.00;;;5.50;;
20114;SDS011;10218;42.874;25.320;2023-06-26T04:07:08;12.23;;;6.40;;
20114;SDS011;10218;42.874;25.320;2023-06-26T04:09:36;13.57;;;6.23;;
20114;SDS011;10218;42.874;25.320;2023-06-26T04:12:03;12.63;;;5.90;;
20114;SDS011;10218;42.874;25.320;2023-06-26T04:14:30;9.33;;;5.90;;
20114;SDS011;10218;42.874;25.320;2023-06-26T04:16:57;10.40;;;6.10;;
20114;SDS011;10218;42.874;25.320;2023-06-26T04:19:27;14.23;;;5.73;;
20114;SDS011;10218;42.874;25.320;2023-06-26T04:21:54;12.03;;;5.93;;
20114;SDS011;10218;42.874;25.320;2023-06-26T04:24:21;15.30;;;6.13;;
20114;SDS011;10218;42.874;25.320;2023-06-26T04:26:48;9.73;;;5.40;;
20114;SDS011;10218;42.874;25.320;2023-06-26T04:29:15;15.90;;;6.07;;
20114;SDS011;10218;42.874;25.320;2023-06-26T04:31:42;12.70;;;5.90;;
20114;SDS011;10218;42.874;25.320;2023-06-26T04:34:13;11.20;;;5.87;;
20114;SDS011;10218;42.874;25.320;2023-06-26T04:36:40;13.27;;;7.87;;
20114;SDS011;10218;42.874;25.320;2023-06-26T04:39:07;14.37;;;6.90;;
20114;SDS011;10218;42.874;25.320;2023-06-26T04:41:34;9.80;;;6.33;;
20114;SDS011;10218;42.874;25.320;2023-06-26T04:44:01;11.17;;;6.33;;
20114;SDS011;10218;42.874;25.320;2023-06-26T04:46:28;14.27;;;6.93;;
20114;SDS011;10218;42.874;25.320;2023-06-26T04:48:56;12.37;;;6.57;;
20114;SDS011;10218;42.874;25.320;2023-06-26T04:51:25;14.57;;;6.93;;
20114;SDS011;10218;42.874;25.320;2023-06-26T04:53:53;12.43;;;7.80;;
20114;SDS011;10218;42.874;25.320;2023-06-26T04:56:20;9.10;;;5.97;;
20114;SDS011;10218;42.874;25.320;2023-06-26T04:58:47;14.83;;;6.43;;
20114;SDS011;10218;42.874;25.320;2023-06-26T05:01:14;12.73;;;7.27;;
20114;SDS011;10218;42.874;25.320;2023-06-26T05:03:42;12.87;;;6.90;;
20114;SDS011;10218;42.874;25.320;2023-06-26T05:06:09;9.83;;;6.80;;
20114;SDS011;10218;42.874;25.320;2023-06-26T05:08:36;13.83;;;7.10;;
20114;SDS011;10218;42.874;25.320;2023-06-26T05:11:04;9.23;;;6.97;;
20114;SDS011;10218;42.874;25.320;2023-06-26T05:13:31;12.27;;;7.07;;
20114;SDS011;10218;42.874;25.320;2023-06-26T05:15:58;10.40;;;6.20;;
20114;SDS011;10218;42.874;25.320;2023-06-26T05:18:25;11.90;;;6.43;;
20114;SDS011;10218;42.874;25.320;2023-06-26T05:20:52;13.93;;;6.70;;
20114;SDS011;10218;42.874;25.320;2023-06-26T05:23:19;8.63;;;6.03;;
20114;SDS011;10218;42.874;25.320;2023-06-26T05:25:48;10.63;;;6.50;;
20114;SDS011;10218;42.874;25.320;2023-06-26T05:28:16;11.20;;;6.73;;
20114;SDS011;10218;42.874;25.320;2023-06-26T05:30:44;12.93;;;6.57;;
20114;SDS011;10218;42.874;25.320;2023-06-26T05:33:11;12.67;;;6.93;;
20114;SDS011;10218;42.874;25.320;2023-06-26T05:35:41;12.30;;;6.80;;
20114;SDS011;10218;42.874;25.320;2023-06-26T05:38:10;12.50;;;7.00;;
20114;SDS011;10218;42.874;25.320;2023-06-26T05:40:37;12.30;;;7.10;;
20114;SDS011;10218;42.874;25.320;2023-06-26T05:43:06;11.17;;;7.23;;
20114;SDS011;10218;42.874;25.320;2023-06-26T05:45:34;12.03;;;7.43;;
20114;SDS011;10218;42.874;25.320;2023-06-26T05:48:01;12.13;;;7.90;;
20114;SDS011;10218;42.874;25.320;2023-06-26T05:50:28;12.30;;;7.50;;
20114;SDS011;10218;42.874;25.320;2023-06-26T05:52:56;17.33;;;8.50;;
20114;SDS011;10218;42.874;25.320;2023-06-26T05:55:24;14.90;;;8.53;;
20114;SDS011;10218;42.874;25.320;2023-06-26T05:57:51;11.00;;;8.03;;
20114;SDS011;10218;42.874;25.320;2023-06-26T06:00:19;13.73;;;8.23;;
20114;SDS011;10218;42.874;25.320;2023-06-26T06:02:46;12.60;;;7.30;;
20114;SDS011;10218;42.874;25.320;2023-06-26T06:05:13;14.50;;;8.30;;
20114;SDS011;10218;42.874;25.320;2023-06-26T06:07:40;15.60;;;7.80;;
20114;SDS011;10218;42.874;25.320;2023-06-26T06:10:08;9.73;;;6.53;;
20114;SDS011;10218;42.874;25.320;2023-06-26T06:12:35;11.20;;;7.57;;
20114;SDS011;10218;42.874;25.320;2023-06-26T06:15:02;9.37;;;6.37;;
20114;SDS011;10218;42.874;25.320;2023-06-26T06:17:30;12.10;;;7.67;;
20114;SDS011;10218;42.874;25.320;2023-06-26T06:19:57;12.47;;;8.53;;
20114;SDS011;10218;42.874;25.320;2023-06-26T06:22:24;10.70;;;7.93;;
20114;SDS011;10218;42.874;25.320;2023-06-26T06:24:51;10.80;;;8.43;;
20114;SDS011;10218;42.874;25.320;2023-06-26T06:27:18;20.83;;;9.43;;
20114;SDS011;10218;42.874;25.320;2023-06-26T06:29:45;16.43;;;9.13;;
20114;SDS011;10218;42.874;25.320;2023-06-26T06:32:13;13.10;;;9.70;;
20114;SDS011;10218;42.874;25.320;2023-06-26T06:34:40;17.37;;;10.60;;
20114;SDS011;10218;42.874;25.320;2023-06-26T06:37:07;18.23;;;13.03;;
20114;SDS011;10218;42.874;25.320;2023-06-26T06:39:34;18.27;;;11.60;;
20114;SDS011;10218;42.874;25.320;2023-06-26T06:42:01;20.07;;;11.83;;
20114;SDS011;10218;42.874;25.320;2023-06-26T06:44:28;16.70;;;11.67;;
20114;SDS011;10218;42.874;25.320;2023-06-26T06:46:57;12.73;;;8.67;;
20114;SDS011;10218;42.874;25.320;2023-06-26T06:49:24;13.60;;;7.97;;
20114;SDS011;10218;42.874;25.320;2023-06-26T06:51:51;13.10;;;8.50;;
20114;SDS011;10218;42.874;25.320;2023-06-26T06:54:18;12.73;;;8.97;;
20114;SDS011;10218;42.874;25.320;2023-06-26T06:56:46;9.10;;;6.83;;
20114;SDS011;10218;42.874;25.320;2023-06-26T06:59:13;10.53;;;7.77;;
20114;SDS011;10218;42.874;25.320;2023-06-26T07:01:40;10.40;;;7.30;;
20114;SDS011;10218;42.874;25.320;2023-06-26T07:04:07;13.23;;;8.37;;
20114;SDS011;10218;42.874;25.320;2023-06-26T07:06:35;8.80;;;7.30;;
20114;SDS011;10218;42.874;25.320;2023-06-26T07:09:02;13.10;;;7.30;;
20114;SDS011;10218;42.874;25.320;2023-06-26T07:11:29;8.13;;;7.20;;
20114;SDS011;10218;42.874;25.320;2023-06-26T07:13:56;8.80;;;5.80;;
20114;SDS011;10218;42.874;25.320;2023-06-26T07:16:23;12.83;;;6.60;;
20114;SDS011;10218;42.874;25.320;2023-06-26T07:18:50;7.27;;;6.23;;
20114;SDS011;10218;42.874;25.320;2023-06-26T07:21:18;11.27;;;7.33;;
20114;SDS011;10218;42.874;25.320;2023-06-26T07:23:46;10.83;;;7.30;;
20114;SDS011;10218;42.874;25.320;2023-06-26T07:26:13;9.60;;;7.50;;
20114;SDS011;10218;42.874;25.320;2023-06-26T07:28:42;14.63;;;7.70;;
20114;SDS011;10218;42.874;25.320;2023-06-26T07:31:09;9.73;;;7.67;;
20114;SDS011;10218;42.874;25.320;2023-06-26T07:33:36;9.30;;;7.17;;
20114;SDS011;10218;42.874;25.320;2023-06-26T07:36:03;9.27;;;7.43;;
20114;SDS011;10218;42.874;25.320;2023-06-26T07:38:31;10.07;;;7.90;;
20114;SDS011;10218;42.874;25.320;2023-06-26T07:40:59;13.10;;;8.83;;
20114;SDS011;10218;42.874;25.320;2023-06-26T07:43:26;11.43;;;9.13;;
20114;SDS011;10218;42.874;25.320;2023-06-26T07:45:53;13.37;;;9.87;;
20114;SDS011;10218;42.874;25.320;2023-06-26T07:48:20;12.20;;;10.23;;
20114;SDS011;10218;42.874;25.320;2023-06-26T07:50:47;13.73;;;9.87;;
20114;SDS011;10218;42.874;25.320;2023-06-26T07:53:14;12.63;;;10.10;;
20114;SDS011;10218;42.874;25.320;2023-06-26T07:55:42;13.70;;;10.50;;
20114;SDS011;10218;42.874;25.320;2023-06-26T07:58:09;13.50;;;10.47;;
20114;SDS011;10218;42.874;25.320;2023-06-26T08:00:37;13.30;;;10.03;;
20114;SDS011;10218;42.874;25.320;2023-06-26T08:03:04;12.67;;;10.03;;
20114;SDS011;10218;42.874;25.320;2023-06-26T08:05:33;12.13;;;10.33;;
20114;SDS011;10218;42.874;25.320;2023-06-26T08:08:00;15.30;;;11.00;;
20114;SDS011;10218;42.874;25.320;2023-06-26T08:10:29;13.37;;;11.77;;
20114;SDS011;10218;42.874;25.320;2023-06-26T08:12:57;15.90;;;12.70;;
20114;SDS011;10218;42.874;25.320;2023-06-26T08:15:25;15.90;;;12.60;;
20114;SDS011;10218;42.874;25.320;2023-06-26T08:17:52;18.30;;;13.37;;
20114;SDS011;10218;42.874;25.320;2023-06-26T08:20:19;18.70;;;14.63;;
20114;SDS011;10218;42.874;25.320;2023-06-26T08:22:47;19.87;;;14.30;;
20114;SDS011;10218;42.874;25.320;2023-06-26T08:25:16;15.57;;;12.67;;
20114;SDS011;10218;42.874;25.320;2023-06-26T08:27:43;17.77;;;13.97;;
20114;SDS011;10218;42.874;25.320;2023-06-26T08:30:10;17.03;;;12.63;;
20114;SDS011;10218;42.874;25.320;2023-06-26T08:32:38;15.80;;;12.97;;
20114;SDS011;10218;42.874;25.320;2023-06-26T08:35:06;19.43;;;13.47;;
20114;SDS011;10218;42.874;25.320;2023-06-26T08:37:33;17.67;;;13.57;;
20114;SDS011;10218;42.874;25.320;2023-06-26T08:40:00;15.90;;;13.27;;
20114;SDS011;10218;42.874;25.320;2023-06-26T08:42:28;19.60;;;12.73;;
20114;SDS011;10218;42.874;25.320;2023-06-26T08:44:55;15.93;;;13.17;;
20114;SDS011;10218;42.874;25.320;2023-06-26T08:47:27;16.40;;;12.57;;
20114;SDS011;10218;42.874;25.320;2023-06-26T08:50:08;15.70;;;12.70;;
20114;SDS011;10218;42.874;25.320;2023-06-26T08:52:45;18.50;;;12.13;;
20114;SDS011;10218;42.874;25.320;2023-06-26T08:55:23;19.90;;;12.63;;
20114;SDS011;10218;42.874;25.320;2023-06-26T08:57:53;18.37;;;13.33;;
20114;SDS011;10218;42.874;25.320;2023-06-26T09:00:20;14.67;;;12.47;;
20114;SDS011;10218;42.874;25.320;2023-06-26T09:02:47;16.47;;;12.80;;
20114;SDS011;10218;42.874;25.320;2023-06-26T09:05:15;20.20;;;14.47;;
20114;SDS011;10218;42.874;25.320;2023-06-26T09:07:42;18.50;;;14.00;;
20114;SDS011;10218;42.874;25.320;2023-06-26T09:10:09;17.43;;;13.17;;
20114;SDS011;10218;42.874;25.320;2023-06-26T09:12:37;14.53;;;12.33;;
20114;SDS011;10218;42.874;25.320;2023-06-26T09:15:05;14.37;;;11.93;;
20114;SDS011;10218;42.874;25.320;2023-06-26T09:17:33;16.67;;;12.90;;
20114;SDS011;10218;42.874;25.320;2023-06-26T09:20:09;16.20;;;11.47;;
20114;SDS011;10218;42.874;25.320;2023-06-26T09:22:37;14.13;;;10.57;;
20114;SDS011;10218;42.874;25.320;2023-06-26T09:25:05;13.37;;;10.77;;
20114;SDS011;10218;42.874;25.320;2023-06-26T09:27:34;11.73;;;9.80;;
20114;SDS011;10218;42.874;25.320;2023-06-26T09:30:02;13.23;;;9.97;;
20114;SDS011;10218;42.874;25.320;2023-06-26T09:32:30;12.90;;;10.60;;
20114;SDS011;10218;42.874;25.320;2023-06-26T09:34:57;12.90;;;10.53;;
20114;SDS011;10218;42.874;25.320;2023-06-26T09:37:26;15.93;;;10.07;;
20114;SDS011;10218;42.874;25.320;2023-06-26T09:39:53;13.90;;;9.93;;
20114;SDS011;10218;42.874;25.320;2023-06-26T09:42:21;21.60;;;9.60;;
20114;SDS011;10218;42.874;25.320;2023-06-26T09:44:48;11.63;;;8.90;;
20114;SDS011;10218;42.874;25.320;2023-06-26T09:47:15;10.50;;;8.53;;
20114;SDS011;10218;42.874;25.320;2023-06-26T09:49:44;10.20;;;8.17;;
20114;SDS011;10218;42.874;25.320;2023-06-26T09:52:15;11.97;;;8.73;;
20114;SDS011;10218;42.874;25.320;2023-06-26T09:54:43;9.73;;;7.80;;
20114;SDS011;10218;42.874;25.320;2023-06-26T09:57:13;9.43;;;7.70;;
20114;SDS011;10218;42.874;25.320;2023-06-26T09:59:42;9.47;;;7.27;;
20114;SDS011;10218;42.874;25.320;2023-06-26T10:02:11;9.07;;;7.30;;
20114;SDS011;10218;42.874;25.320;2023-06-26T10:04:38;10.60;;;7.63;;
20114;SDS011;10218;42.874;25.320;2023-06-26T10:07:06;10.20;;;7.70;;
20114;SDS011;10218;42.874;25.320;2023-06-26T10:09:38;8.77;;;7.57;;
20114;SDS011;10218;42.874;25.320;2023-06-26T10:12:19;9.50;;;7.17;;
20114;SDS011;10218;42.874;25.320;2023-06-26T10:14:58;8.10;;;7.30;;
20114;SDS011;10218;42.874;25.320;2023-06-26T10:17:30;10.50;;;7.20;;
20114;SDS011;10218;42.874;25.320;2023-06-26T10:20:02;8.10;;;6.60;;
20114;SDS011;10218;42.874;25.320;2023-06-26T10:22:33;8.70;;;6.67;;
20114;SDS011;10218;42.874;25.320;2023-06-26T10:25:04;9.57;;;6.83;;
20114;SDS011;10218;42.874;25.320;2023-06-26T10:27:35;7.77;;;6.23;;
20114;SDS011;10218;42.874;25.320;2023-06-26T10:30:09;7.97;;;5.87;;
20114;SDS011;10218;42.874;25.320;2023-06-26T10:32:41;10.87;;;6.10;;
20114;SDS011;10218;42.874;25.320;2023-06-26T10:35:08;7.67;;;6.10;;
20114;SDS011;10218;42.874;25.320;2023-06-26T10:37:47;11.57;;;6.87;;
20114;SDS011;10218;42.874;25.320;2023-06-26T10:40:25;10.17;;;6.03;;
20114;SDS011;10218;42.874;25.320;2023-06-26T10:43:05;7.30;;;5.60;;
20114;SDS011;10218;42.874;25.320;2023-06-26T10:45:37;9.73;;;6.40;;
20114;SDS011;10218;42.874;25.320;2023-06-26T10:48:09;8.87;;;5.80;;
20114;SDS011;10218;42.874;25.320;2023-06-26T10:50:36;9.57;;;5.60;;
20114;SDS011;10218;42.874;25.320;2023-06-26T10:55:49;10.07;;;5.67;;
20114;SDS011;10218;42.874;25.320;2023-06-26T10:58:28;7.60;;;6.23;;
20114;SDS011;10218;42.874;25.320;2023-06-26T11:04:05;6.97;;;5.27;;
20114;SDS011;10218;42.874;25.320;2023-06-26T11:06:34;6.33;;;5.33;;
20114;SDS011;10218;42.874;25.320;2023-06-26T11:14:31;5.60;;;5.00;;
20114;SDS011;10218;42.874;25.320;2023-06-26T11:16:59;5.73;;;4.17;;
20114;SDS011;10218;42.874;25.320;2023-06-26T11:19:29;7.40;;;4.77;;
20114;SDS011;10218;42.874;25.320;2023-06-26T11:21:57;5.47;;;4.10;;
20114;SDS011;10218;42.874;25.320;2023-06-26T11:24:25;10.23;;;5.30;;
20114;SDS011;10218;42.874;25.320;2023-06-26T11:26:53;6.63;;;4.87;;
20114;SDS011;10218;42.874;25.320;2023-06-26T11:29:20;6.90;;;4.50;;
20114;SDS011;10218;42.874;25.320;2023-06-26T11:31:47;8.23;;;4.30;;
20114;SDS011;10218;42.874;25.320;2023-06-26T11:34:14;7.07;;;4.43;;
20114;SDS011;10218;42.874;25.320;2023-06-26T11:36:42;6.23;;;4.13;;
20114;SDS011;10218;42.874;25.320;2023-06-26T11:39:12;6.63;;;4.33;;
20114;SDS011;10218;42.874;25.320;2023-06-26T11:41:40;6.78;;;3.97;;
20114;SDS011;10218;42.874;25.320;2023-06-26T11:44:09;5.63;;;4.20;;
20114;SDS011;10218;42.874;25.320;2023-06-26T11:46:37;5.43;;;4.18;;
20114;SDS011;10218;42.874;25.320;2023-06-26T11:49:05;6.45;;;3.65;;
20114;SDS011;10218;42.874;25.320;2023-06-26T11:51:34;6.55;;;4.10;;
20114;SDS011;10218;42.874;25.320;2023-06-26T11:54:03;6.05;;;4.07;;
20114;SDS011;10218;42.874;25.320;2023-06-26T11:56:31;6.32;;;3.70;;
20114;SDS011;10218;42.874;25.320;2023-06-26T12:01:45;6.68;;;3.92;;
20114;SDS011;10218;42.874;25.320;2023-06-26T12:04:14;5.68;;;3.92;;
20114;SDS011;10218;42.874;25.320;2023-06-26T12:06:45;7.60;;;3.62;;
20114;SDS011;10218;42.874;25.320;2023-06-26T12:09:15;5.72;;;3.90;;
20114;SDS011;10218;42.874;25.320;2023-06-26T12:11:45;6.78;;;4.15;;
20114;SDS011;10218;42.874;25.320;2023-06-26T12:14:16;7.03;;;3.83;;
20114;SDS011;10218;42.874;25.320;2023-06-26T12:16:44;8.17;;;4.00;;
20114;SDS011;10218;42.874;25.320;2023-06-26T12:19:11;5.90;;;3.47;;
20114;SDS011;10218;42.874;25.320;2023-06-26T12:24:13;7.70;;;3.83;;
20114;SDS011;10218;42.874;25.320;2023-06-26T12:26:43;6.53;;;4.00;;
20114;SDS011;10218;42.874;25.320;2023-06-26T12:29:13;6.70;;;4.00;;
20114;SDS011;10218;42.874;25.320;2023-06-26T12:31:45;5.87;;;3.67;;
20114;SDS011;10218;42.874;25.320;2023-06-26T12:34:15;10.47;;;4.23;;
20114;SDS011;10218;42.874;25.320;2023-06-26T12:36:48;7.23;;;4.40;;
20114;SDS011;10218;42.874;25.320;2023-06-26T12:39:17;12.37;;;5.07;;
20114;SDS011;10218;42.874;25.320;2023-06-26T12:41:46;16.07;;;5.60;;
20114;SDS011;10218;42.874;25.320;2023-06-26T12:44:25;11.23;;;5.67;;
20114;SDS011;10218;42.874;25.320;2023-06-26T12:46:57;13.23;;;5.73;;
20114;SDS011;10218;42.874;25.320;2023-06-26T12:49:44;10.67;;;5.77;;
20114;SDS011;10218;42.874;25.320;2023-06-26T12:52:13;7.93;;;5.23;;
20114;SDS011;10218;42.874;25.320;2023-06-26T12:54:44;10.47;;;5.33;;
20114;SDS011;10218;42.874;25.320;2023-06-26T12:57:13;13.67;;;6.27;;
20114;SDS011;10218;42.874;25.320;2023-06-26T12:59:41;10.23;;;5.57;;
20114;SDS011;10218;42.874;25.320;2023-06-26T13:02:08;11.10;;;5.97;;
20114;SDS011;10218;42.874;25.320;2023-06-26T13:04:38;8.60;;;5.30;;
20114;SDS011;10218;42.874;25.320;2023-06-26T13:07:08;8.83;;;5.20;;
20114;SDS011;10218;42.874;25.320;2023-06-26T13:09:35;8.40;;;5.20;;
20114;SDS011;10218;42.874;25.320;2023-06-26T13:12:03;9.97;;;5.70;;
20114;SDS011;10218;42.874;25.320;2023-06-26T13:14:32;11.97;;;6.23;;
20114;SDS011;10218;42.874;25.320;2023-06-26T13:17:00;9.10;;;5.63;;
20114;SDS011;10218;42.874;25.320;2023-06-26T13:19:27;9.70;;;4.73;;
20114;SDS011;10218;42.874;25.320;2023-06-26T13:21:55;12.47;;;5.70;;
20114;SDS011;10218;42.874;25.320;2023-06-26T13:24:22;10.20;;;6.10;;
20114;SDS011;10218;42.874;25.320;2023-06-26T13:26:49;9.70;;;6.10;;
20114;SDS011;10218;42.874;25.320;2023-06-26T13:29:16;12.33;;;6.43;;
20114;SDS011;10218;42.874;25.320;2023-06-26T13:31:43;12.10;;;7.10;;
20114;SDS011;10218;42.874;25.320;2023-06-26T13:34:19;13.03;;;7.27;;
20114;SDS011;10218;42.874;25.320;2023-06-26T13:36:50;11.27;;;5.60;;
20114;SDS011;10218;42.874;25.320;2023-06-26T13:39:17;10.00;;;5.70;;
20114;SDS011;10218;42.874;25.320;2023-06-26T13:41:44;8.60;;;4.97;;
20114;SDS011;10218;42.874;25.320;2023-06-26T13:44:12;8.73;;;5.47;;
20114;SDS011;10218;42.874;25.320;2023-06-26T13:46:39;12.77;;;6.57;;
20114;SDS011;10218;42.874;25.320;2023-06-26T13:49:06;11.80;;;7.90;;
20114;SDS011;10218;42.874;25.320;2023-06-26T13:51:33;11.33;;;6.93;;
20114;SDS011;10218;42.874;25.320;2023-06-26T13:54:00;11.20;;;7.30;;
20114;SDS011;10218;42.874;25.320;2023-06-26T13:56:27;11.93;;;8.20;;
20114;SDS011;10218;42.874;25.320;2023-06-26T13:58:57;10.27;;;8.17;;
20114;SDS011;10218;42.874;25.320;2023-06-26T14:01:25;12.00;;;8.53;;
20114;SDS011;10218;42.874;25.320;2023-06-26T14:03:52;10.33;;;7.87;;
20114;SDS011;10218;42.874;25.320;2023-06-26T14:06:19;14.07;;;8.00;;
20114;SDS011;10218;42.874;25.320;2023-06-26T14:08:46;16.80;;;7.83;;
20114;SDS011;10218;42.874;25.320;2023-06-26T14:11:14;11.50;;;8.10;;
20114;SDS011;10218;42.874;25.320;2023-06-26T14:13:42;13.37;;;8.23;;
20114;SDS011;10218;42.874;25.320;2023-06-26T14:16:09;10.63;;;6.93;;
20114;SDS011;10218;42.874;25.320;2023-06-26T14:18:37;6.77;;;4.60;;
20114;SDS011;10218;42.874;25.320;2023-06-26T14:21:04;7.80;;;5.50;;
20114;SDS011;10218;42.874;25.320;2023-06-26T14:23:32;11.87;;;5.40;;
20114;SDS011;10218;42.874;25.320;2023-06-26T14:25:59;7.37;;;4.73;;
20114;SDS011;10218;42.874;25.320;2023-06-26T14:28:26;7.73;;;5.00;;
20114;SDS011;10218;42.874;25.320;2023-06-26T14:30:53;7.20;;;4.73;;
20114;SDS011;10218;42.874;25.320;2023-06-26T14:33:20;16.63;;;12.40;;
20114;SDS011;10218;42.874;25.320;2023-06-26T14:35:47;8.63;;;5.83;;
20114;SDS011;10218;42.874;25.320;2023-06-26T14:38:14;13.83;;;5.50;;
20114;SDS011;10218;42.874;25.320;2023-06-26T14:40:42;8.03;;;5.60;;
20114;SDS011;10218;42.874;25.320;2023-06-26T14:43:09;11.70;;;5.77;;
20114;SDS011;10218;42.874;25.320;2023-06-26T14:45:36;15.80;;;6.00;;
20114;SDS011;10218;42.874;25.320;2023-06-26T14:48:03;9.90;;;6.10;;
20114;SDS011;10218;42.874;25.320;2023-06-26T14:50:30;9.93;;;6.23;;
20114;SDS011;10218;42.874;25.320;2023-06-26T14:52:58;9.60;;;6.10;;
20114;SDS011;10218;42.874;25.320;2023-06-26T14:55:26;7.23;;;5.43;;